Time;durP1;ratioP1;P1;durP2;ratioP2;P2;SDS_P1;SDS_P2;PMS_P1;PMS_P2;Temp;Humidity;BMP_temperature;BMP_pressure;BME280_temperature;BME280_humidity;BME280_pressure;Samples;Min_cycle;Max_cycle;Signal;HPM_P1;HPM_P2
2022/09/07 00:00:07;;;;;;;0.20;0.20;;;;;;;;;;4132541;28;20054;-39
2022/09/07 00:02:08;;;;;;;0.20;0.20;;;;;;;;;;4131424;28;20050;-40
2022/09/07 00:04:09;;;;;;;0.30;0.30;;;;;;;;;;4132735;28;20544;-39
2022/09/07 00:06:12;;;;;;;0.40;0.30;;;;;;;;;;4132745;28;20050;-39
2022/09/07 00:08:14;;;;;;;0.30;0.30;;;;;;;;;;4132371;28;20488;-39
2022/09/07 00:10:15;;;;;;;0.40;0.30;;;;;;;;;;4131186;28;20132;-39
2022/09/07 00:12:16;;;;;;;0.40;0.30;;;;;;;;;;4132340;28;20054;-39
2022/09/07 00:14:17;;;;;;;0.35;0.35;;;;;;;;;;4132577;28;20050;-39
2022/09/07 00:16:21;;;;;;;0.32;0.25;;;;;;;;;;4131076;28;20146;-39
2022/09/07 00:18:23;;;;;;;0.20;0.20;;;;;;;;;;4146866;28;20057;-39
2022/09/07 00:20:24;;;;;;;0.20;0.20;;;;;;;;;;4132546;28;20488;-39
2022/09/07 00:22:25;;;;;;;0.50;0.30;;;;;;;;;;4130838;28;20124;-40
2022/09/07 00:24:26;;;;;;;0.20;0.20;;;;;;;;;;4132281;28;20435;-39
2022/09/07 00:26:29;;;;;;;0.20;0.20;;;;;;;;;;4132232;28;20536;-39
2022/09/07 00:28:30;;;;;;;0.10;0.10;;;;;;;;;;4132041;28;20149;-39
2022/09/07 00:30:32;;;;;;;0.38;0.30;;;;;;;;;;4147093;28;20073;-39
2022/09/07 00:32:34;;;;;;;0.20;0.20;;;;;;;;;;4131584;28;20518;-40
2022/09/07 00:34:35;;;;;;;0.75;0.20;;;;;;;;;;4132358;28;20050;-39
2022/09/07 00:36:36;;;;;;;0.30;0.30;;;;;;;;;;4135984;28;20382;-39
2022/09/07 00:38:37;;;;;;;0.28;0.20;;;;;;;;;;4148333;28;20100;-39
2022/09/07 00:40:58;;;;;;;0.50;0.30;;;;;;;;;;4148101;28;20552;-39
2022/09/07 00:42:59;;;;;;;0.47;0.30;;;;;;;;;;4147937;28;20512;-39
2022/09/07 00:45:13;;;;;;;0.10;0.10;;;;;;;;;;4148414;28;20096;-39
2022/09/07 00:47:20;;;;;;;0.20;0.20;;;;;;;;;;4146409;28;20050;-39
2022/09/07 00:49:21;;;;;;;0.45;0.35;;;;;;;;;;4146809;28;20050;-39
2022/09/07 00:51:45;;;;;;;0.30;0.30;;;;;;;;;;4148258;28;20054;-39
2022/09/07 00:53:53;;;;;;;0.40;0.35;;;;;;;;;;4147934;28;20058;-39
2022/09/07 00:55:55;;;;;;;0.22;0.22;;;;;;;;;;4148244;28;20054;-39
2022/09/07 00:57:57;;;;;;;0.20;0.20;;;;;;;;;;4147867;28;20057;-39
2022/09/07 00:59:58;;;;;;;0.57;0.40;;;;;;;;;;4148211;28;20065;-39
2022/09/07 01:02:00;;;;;;;0.40;0.30;;;;;;;;;;4130228;28;20410;-39
2022/09/07 01:04:02;;;;;;;0.38;0.22;;;;;;;;;;4147500;28;20414;-39
2022/09/07 01:06:19;;;;;;;0.40;0.30;;;;;;;;;;4146766;28;20496;-39
2022/09/07 01:08:22;;;;;;;0.50;0.40;;;;;;;;;;4148026;28;20054;-39
2022/09/07 01:10:26;;;;;;;0.80;0.40;;;;;;;;;;4148012;28;20062;-39
2022/09/07 01:12:27;;;;;;;0.40;0.30;;;;;;;;;;4147904;28;20058;-39
2022/09/07 01:14:31;;;;;;;0.32;0.20;;;;;;;;;;4146458;28;20054;-39
2022/09/07 01:16:50;;;;;;;0.30;0.30;;;;;;;;;;4146852;28;20053;-39
2022/09/07 01:19:05;;;;;;;0.17;0.10;;;;;;;;;;4147447;28;20050;-39
2022/09/07 01:21:18;;;;;;;0.57;0.30;;;;;;;;;;4146444;28;20497;-39
2022/09/07 01:23:38;;;;;;;0.65;0.22;;;;;;;;;;4147514;28;20053;-39
2022/09/07 01:25:57;;;;;;;0.20;0.20;;;;;;;;;;4147490;28;20095;-39
2022/09/07 01:28:11;;;;;;;0.23;0.20;;;;;;;;;;4131153;28;20486;-39
2022/09/07 01:30:14;;;;;;;0.50;0.30;;;;;;;;;;4146242;28;20436;-39
2022/09/07 01:32:31;;;;;;;0.45;0.20;;;;;;;;;;4145689;28;20061;-39
2022/09/07 01:34:32;;;;;;;0.28;0.22;;;;;;;;;;4131292;28;20148;-39
2022/09/07 01:36:42;;;;;;;0.73;0.20;;;;;;;;;;4131059;28;20509;-39
2022/09/07 01:38:59;;;;;;;0.30;0.20;;;;;;;;;;4131367;28;20069;-39
2022/09/07 01:41:13;;;;;;;0.50;0.20;;;;;;;;;;4146113;28;20054;-39
2022/09/07 01:43:51;;;;;;;0.17;0.17;;;;;;;;;;4153119;28;20045;-39
2022/09/07 01:45:54;;;;;;;0.30;0.20;;;;;;;;;;4146079;28;20083;-39
2022/09/07 01:47:58;;;;;;;0.38;0.30;;;;;;;;;;4144464;28;20096;-38
2022/09/07 01:50:15;;;;;;;0.38;0.30;;;;;;;;;;4145250;28;20180;-38
2022/09/07 01:52:25;;;;;;;0.25;0.20;;;;;;;;;;4145521;28;20064;-38
2022/09/07 01:54:30;;;;;;;0.20;0.20;;;;;;;;;;4145456;28;20127;-38
2022/09/07 01:56:38;;;;;;;0.20;0.20;;;;;;;;;;4145471;28;20092;-38
2022/09/07 01:59:09;;;;;;;1.55;0.20;;;;;;;;;;4145799;28;20089;-38
2022/09/07 02:01:24;;;;;;;0.60;0.20;;;;;;;;;;4129830;28;20061;-38
2022/09/07 02:03:28;;;;;;;0.20;0.20;;;;;;;;;;4145224;28;20069;-39
2022/09/07 02:05:34;;;;;;;0.40;0.32;;;;;;;;;;4146965;28;20563;-38
2022/09/07 02:07:40;;;;;;;0.30;0.30;;;;;;;;;;4145522;28;20045;-38
2022/09/07 02:09:50;;;;;;;0.30;0.28;;;;;;;;;;4146960;28;20115;-38
2022/09/07 02:11:52;;;;;;;0.20;0.20;;;;;;;;;;4145834;28;20061;-38
2022/09/07 02:13:57;;;;;;;0.45;0.30;;;;;;;;;;4146786;28;20132;-39
2022/09/07 02:16:16;;;;;;;0.10;0.10;;;;;;;;;;4146795;28;20056;-38
2022/09/07 02:18:19;;;;;;;0.10;0.10;;;;;;;;;;4145341;28;20443;-39
2022/09/07 02:20:27;;;;;;;0.25;0.25;;;;;;;;;;4145617;28;20057;-39
2022/09/07 02:22:33;;;;;;;0.20;0.20;;;;;;;;;;4145473;28;20096;-39
2022/09/07 02:24:40;;;;;;;0.20;0.20;;;;;;;;;;4147961;28;20053;-39
2022/09/07 02:26:41;;;;;;;0.20;0.20;;;;;;;;;;4152259;28;20390;-39
2022/09/07 02:28:43;;;;;;;0.32;0.32;;;;;;;;;;4151066;28;20132;-39
2022/09/07 02:30:44;;;;;;;0.20;0.20;;;;;;;;;;4152267;28;20053;-39
2022/09/07 02:32:45;;;;;;;0.20;0.20;;;;;;;;;;4152078;28;20127;-39
2022/09/07 02:34:47;;;;;;;0.28;0.20;;;;;;;;;;4152244;28;20058;-38
2022/09/07 02:36:49;;;;;;;0.50;0.30;;;;;;;;;;4152472;28;20045;-38
2022/09/07 02:38:51;;;;;;;0.20;0.20;;;;;;;;;;4150584;28;20524;-38
2022/09/07 02:40:53;;;;;;;0.32;0.20;;;;;;;;;;4151208;28;20099;-38
2022/09/07 02:42:57;;;;;;;0.25;0.20;;;;;;;;;;4152035;28;20469;-38
2022/09/07 02:44:59;;;;;;;0.30;0.20;;;;;;;;;;4150976;28;20096;-39
2022/09/07 02:47:04;;;;;;;0.20;0.20;;;;;;;;;;4152091;28;20199;-39
2022/09/07 02:49:20;;;;;;;0.20;0.17;;;;;;;;;;4151717;28;20398;-39
2022/09/07 02:51:42;;;;;;;0.20;0.20;;;;;;;;;;4135938;28;20096;-38
2022/09/07 02:54:12;;;;;;;0.28;0.28;;;;;;;;;;4135629;28;20058;-38
2022/09/07 02:56:23;;;;;;;0.43;0.20;;;;;;;;;;4134604;28;20053;-39
2022/09/07 02:58:24;;;;;;;0.20;0.17;;;;;;;;;;4134528;28;20446;-38
2022/09/07 03:00:28;;;;;;;0.20;0.20;;;;;;;;;;4135900;28;20344;-39
2022/09/07 03:02:45;;;;;;;0.10;0.10;;;;;;;;;;4134000;28;20215;-39
2022/09/07 03:05:02;;;;;;;0.17;0.17;;;;;;;;;;4134741;28;20085;-39
2022/09/07 03:07:26;;;;;;;0.50;0.30;;;;;;;;;;4134118;28;20050;-40
2022/09/07 03:09:30;;;;;;;0.40;0.30;;;;;;;;;;4135152;28;20062;-39
2022/09/07 03:11:35;;;;;;;0.38;0.20;;;;;;;;;;4135683;28;20054;-39
2022/09/07 03:13:37;;;;;;;0.30;0.30;;;;;;;;;;4135956;28;20054;-39
2022/09/07 03:15:39;;;;;;;0.20;0.20;;;;;;;;;;4134442;28;20097;-39
2022/09/07 03:17:40;;;;;;;0.20;0.20;;;;;;;;;;4135241;28;20050;-39
2022/09/07 03:19:41;;;;;;;0.22;0.20;;;;;;;;;;4151003;28;20058;-39
2022/09/07 03:21:43;;;;;;;0.20;0.15;;;;;;;;;;4135546;28;20409;-39
2022/09/07 03:23:44;;;;;;;0.40;0.20;;;;;;;;;;4135491;28;20517;-39
2022/09/07 03:25:48;;;;;;;0.25;0.20;;;;;;;;;;4135603;28;20054;-39
2022/09/07 03:27:50;;;;;;;0.20;0.20;;;;;;;;;;4135480;28;20126;-39
2022/09/07 03:29:51;;;;;;;0.20;0.20;;;;;;;;;;4135921;28;20055;-39
2022/09/07 03:31:52;;;;;;;0.28;0.17;;;;;;;;;;4135520;28;20058;-39
2022/09/07 03:33:53;;;;;;;0.20;0.20;;;;;;;;;;4135010;28;20057;-39
2022/09/07 03:36:00;;;;;;;0.20;0.20;;;;;;;;;;4133875;28;20113;-39
2022/09/07 03:38:01;;;;;;;0.28;0.20;;;;;;;;;;4132948;28;20057;-39
2022/09/07 03:40:05;;;;;;;0.63;0.40;;;;;;;;;;4133444;28;20054;-39
2022/09/07 03:42:06;;;;;;;0.22;0.22;;;;;;;;;;4132644;28;20054;-40
2022/09/07 03:44:07;;;;;;;0.13;0.13;;;;;;;;;;4141259;28;20112;-39
2022/09/07 03:46:09;;;;;;;0.10;0.10;;;;;;;;;;4147947;28;20456;-39
2022/09/07 03:48:10;;;;;;;0.35;0.20;;;;;;;;;;4148363;28;20088;-39
2022/09/07 03:50:11;;;;;;;0.30;0.22;;;;;;;;;;4148897;28;20053;-39
2022/09/07 03:52:12;;;;;;;0.30;0.30;;;;;;;;;;4149042;28;20104;-39
2022/09/07 03:54:14;;;;;;;0.20;0.10;;;;;;;;;;4147872;28;20077;-39
2022/09/07 03:56:20;;;;;;;0.22;0.22;;;;;;;;;;4148836;28;20428;-39
2022/09/07 03:58:21;;;;;;;0.22;0.22;;;;;;;;;;4148848;28;20383;-39
2022/09/07 04:00:23;;;;;;;0.20;0.20;;;;;;;;;;4147848;28;20156;-39
2022/09/07 04:02:24;;;;;;;0.30;0.30;;;;;;;;;;4148186;28;20072;-38
2022/09/07 04:04:25;;;;;;;0.30;0.30;;;;;;;;;;4148834;28;20049;-38
2022/09/07 04:06:26;;;;;;;0.10;0.10;;;;;;;;;;4148606;28;20060;-38
2022/09/07 04:08:29;;;;;;;0.22;0.20;;;;;;;;;;4148488;28;20061;-39
2022/09/07 04:10:30;;;;;;;0.30;0.30;;;;;;;;;;4148799;28;20442;-38
2022/09/07 04:12:31;;;;;;;0.20;0.20;;;;;;;;;;4147135;28;20116;-38
2022/09/07 04:14:32;;;;;;;0.20;0.20;;;;;;;;;;4147396;28;20057;-39
2022/09/07 04:16:34;;;;;;;0.20;0.20;;;;;;;;;;4148567;28;20421;-39
2022/09/07 04:18:38;;;;;;;0.20;0.20;;;;;;;;;;4147902;28;20054;-38
2022/09/07 04:20:39;;;;;;;0.30;0.30;;;;;;;;;;4146916;28;20050;-39
2022/09/07 04:22:42;;;;;;;0.40;0.30;;;;;;;;;;4148522;28;20112;-38
2022/09/07 04:24:43;;;;;;;0.40;0.22;;;;;;;;;;4148502;28;20077;-39
2022/09/07 04:26:44;;;;;;;0.13;0.13;;;;;;;;;;4148475;28;20058;-39
2022/09/07 04:28:46;;;;;;;0.30;0.20;;;;;;;;;;4148133;28;20058;-39
2022/09/07 04:30:47;;;;;;;0.20;0.20;;;;;;;;;;4148223;28;20054;-39
2022/09/07 04:32:48;;;;;;;0.30;0.22;;;;;;;;;;4147935;28;20100;-39
2022/09/07 04:34:52;;;;;;;0.43;0.20;;;;;;;;;;4148202;28;20045;-39
2022/09/07 04:36:53;;;;;;;0.30;0.30;;;;;;;;;;4148366;28;20115;-38
2022/09/07 04:38:59;;;;;;;0.30;0.30;;;;;;;;;;4147951;28;20061;-39
2022/09/07 04:41:05;;;;;;;0.30;0.25;;;;;;;;;;4148142;28;20100;-39
2022/09/07 04:43:08;;;;;;;0.22;0.20;;;;;;;;;;4130569;28;20062;-39
2022/09/07 04:45:09;;;;;;;0.20;0.20;;;;;;;;;;4148168;28;20057;-38
2022/09/07 04:47:10;;;;;;;0.10;0.10;;;;;;;;;;4147341;28;20041;-39
2022/09/07 04:49:12;;;;;;;0.30;0.22;;;;;;;;;;4146958;28;20096;-39
2022/09/07 04:51:14;;;;;;;0.22;0.22;;;;;;;;;;4147977;28;20497;-39
2022/09/07 04:53:15;;;;;;;0.20;0.20;;;;;;;;;;4147798;28;20107;-39
2022/09/07 04:55:16;;;;;;;0.40;0.30;;;;;;;;;;4147990;28;20058;-38
2022/09/07 04:57:23;;;;;;;0.40;0.30;;;;;;;;;;4147959;28;20057;-38
2022/09/07 04:59:24;;;;;;;0.20;0.20;;;;;;;;;;4147879;28;20062;-38
2022/09/07 05:01:25;;;;;;;0.30;0.20;;;;;;;;;;4134735;28;20411;-39
2022/09/07 05:03:28;;;;;;;0.40;0.25;;;;;;;;;;4128871;28;20062;-38
2022/09/07 05:05:30;;;;;;;0.30;0.30;;;;;;;;;;4129705;28;20054;-39
2022/09/07 05:07:31;;;;;;;0.25;0.25;;;;;;;;;;4144227;28;20081;-39
2022/09/07 05:09:32;;;;;;;0.30;0.20;;;;;;;;;;4129402;28;20070;-39
2022/09/07 05:11:34;;;;;;;0.15;0.15;;;;;;;;;;4129339;28;20073;-38
2022/09/07 05:13:35;;;;;;;1.30;0.20;;;;;;;;;;4129152;28;20104;-39
2022/09/07 05:15:36;;;;;;;0.20;0.20;;;;;;;;;;4129684;28;20120;-38
2022/09/07 05:17:37;;;;;;;0.22;0.20;;;;;;;;;;4128938;28;20062;-39
2022/09/07 05:19:39;;;;;;;0.40;0.40;;;;;;;;;;4129236;28;20389;-39
2022/09/07 05:21:40;;;;;;;0.20;0.20;;;;;;;;;;4129257;28;20490;-39
2022/09/07 05:23:42;;;;;;;0.40;0.15;;;;;;;;;;4129256;28;20536;-38
2022/09/07 05:25:44;;;;;;;0.50;0.28;;;;;;;;;;4129173;28;20054;-38
2022/09/07 05:27:45;;;;;;;0.75;0.60;;;;;;;;;;4129282;28;20054;-39
2022/09/07 05:29:46;;;;;;;1.00;0.30;;;;;;;;;;4129202;28;20414;-39
2022/09/07 05:31:47;;;;;;;0.32;0.32;;;;;;;;;;4127914;28;20089;-39
2022/09/07 05:33:53;;;;;;;0.20;0.20;;;;;;;;;;4128538;28;20120;-38
2022/09/07 05:35:57;;;;;;;0.20;0.20;;;;;;;;;;4142628;28;20129;-39
2022/09/07 05:37:58;;;;;;;0.47;0.35;;;;;;;;;;4144855;28;20410;-38
2022/09/07 05:39:59;;;;;;;0.65;0.30;;;;;;;;;;4145460;28;20057;-39
2022/09/07 05:42:01;;;;;;;0.20;0.20;;;;;;;;;;4145244;28;20134;-39
2022/09/07 05:44:03;;;;;;;0.77;0.40;;;;;;;;;;4145045;28;20100;-39
2022/09/07 05:46:04;;;;;;;0.60;0.28;;;;;;;;;;4145037;28;20559;-39
2022/09/07 05:48:06;;;;;;;0.43;0.20;;;;;;;;;;4144151;28;20108;-39
2022/09/07 05:50:08;;;;;;;0.63;0.20;;;;;;;;;;4145200;28;20057;-39
2022/09/07 05:52:09;;;;;;;1.65;0.30;;;;;;;;;;4145025;28;20516;-39
2022/09/07 05:54:10;;;;;;;0.30;0.30;;;;;;;;;;4145074;28;20069;-40
2022/09/07 05:56:12;;;;;;;0.73;0.30;;;;;;;;;;4145038;28;20058;-40
2022/09/07 05:58:13;;;;;;;0.63;0.32;;;;;;;;;;4135837;28;20862;-38
2022/09/07 06:00:14;;;;;;;0.40;0.30;;;;;;;;;;4136576;28;20112;-38
2022/09/07 06:02:15;;;;;;;0.63;0.40;;;;;;;;;;4141456;28;20427;-38
2022/09/07 06:04:16;;;;;;;0.77;0.38;;;;;;;;;;4142310;28;20061;-40
2022/09/07 06:06:18;;;;;;;1.55;0.43;;;;;;;;;;4133628;28;20064;-40
2022/09/07 06:08:19;;;;;;;0.50;0.30;;;;;;;;;;4137283;28;20549;-40
2022/09/07 06:10:20;;;;;;;1.92;0.30;;;;;;;;;;4139853;28;20127;-40
2022/09/07 06:12:21;;;;;;;0.40;0.20;;;;;;;;;;4131260;28;20053;-41
2022/09/07 06:14:23;;;;;;;0.50;0.32;;;;;;;;;;4135795;28;20061;-39
2022/09/07 06:16:24;;;;;;;1.73;0.38;;;;;;;;;;4142416;28;20473;-38
2022/09/07 06:18:29;;;;;;;0.50;0.40;;;;;;;;;;4141692;28;20164;-38
2022/09/07 06:20:30;;;;;;;1.13;0.30;;;;;;;;;;4137432;28;20116;-40
2022/09/07 06:22:36;;;;;;;0.70;0.30;;;;;;;;;;4135948;28;20112;-38
2022/09/07 06:24:37;;;;;;;0.70;0.20;;;;;;;;;;4149166;28;20500;-38
2022/09/07 06:26:38;;;;;;;1.10;0.30;;;;;;;;;;4134797;28;20061;-44
2022/09/07 06:28:42;;;;;;;0.30;0.30;;;;;;;;;;4124220;28;20076;-39
2022/09/07 06:30:43;;;;;;;0.40;0.30;;;;;;;;;;4137744;28;20254;-39
2022/09/07 06:32:44;;;;;;;0.52;0.30;;;;;;;;;;4128727;28;20058;-39
2022/09/07 06:34:45;;;;;;;4.85;0.38;;;;;;;;;;4133380;28;20057;-40
2022/09/07 06:36:47;;;;;;;0.85;0.20;;;;;;;;;;4132171;28;20108;-40
2022/09/07 06:38:48;;;;;;;0.40;0.40;;;;;;;;;;4132302;28;20250;-39
2022/09/07 06:40:49;;;;;;;1.15;0.50;;;;;;;;;;4124180;28;20560;-40
2022/09/07 06:42:51;;;;;;;0.82;0.30;;;;;;;;;;4130550;28;20053;-39
2022/09/07 06:44:53;;;;;;;3.22;0.28;;;;;;;;;;4127009;28;20096;-39
2022/09/07 06:46:54;;;;;;;4.10;0.88;;;;;;;;;;4127337;28;21413;-39
2022/09/07 06:48:55;;;;;;;0.60;0.32;;;;;;;;;;4126078;28;20088;-39
2022/09/07 06:51:01;;;;;;;1.83;0.28;;;;;;;;;;4128861;28;20379;-39
2022/09/07 06:53:02;;;;;;;0.35;0.20;;;;;;;;;;4124614;28;20050;-39
2022/09/07 06:55:04;;;;;;;1.27;0.30;;;;;;;;;;4125841;28;20685;-40
2022/09/07 06:57:07;;;;;;;0.25;0.20;;;;;;;;;;4124872;28;20088;-39
2022/09/07 06:59:09;;;;;;;0.47;0.30;;;;;;;;;;4129309;28;20053;-39
2022/09/07 07:01:20;;;;;;;0.35;0.30;;;;;;;;;;4131810;28;20058;-40
2022/09/07 07:03:22;;;;;;;0.57;0.20;;;;;;;;;;4124836;28;20383;-39
2022/09/07 07:05:23;;;;;;;0.30;0.20;;;;;;;;;;4122059;28;20775;-40
2022/09/07 07:07:24;;;;;;;0.20;0.20;;;;;;;;;;4128207;28;20097;-40
2022/09/07 07:09:25;;;;;;;0.22;0.22;;;;;;;;;;4125689;28;20532;-40
2022/09/07 07:11:27;;;;;;;0.77;0.30;;;;;;;;;;4128594;28;20061;-39
2022/09/07 07:13:28;;;;;;;0.73;0.32;;;;;;;;;;4131586;28;20140;-39
2022/09/07 07:15:29;;;;;;;0.30;0.22;;;;;;;;;;4130382;28;20060;-39
2022/09/07 07:17:31;;;;;;;0.50;0.20;;;;;;;;;;4128567;28;20160;-39
2022/09/07 07:19:32;;;;;;;0.10;0.10;;;;;;;;;;4131294;28;20123;-39
2022/09/07 07:21:33;;;;;;;0.30;0.20;;;;;;;;;;4136352;28;20057;-40
2022/09/07 07:23:35;;;;;;;1.15;0.30;;;;;;;;;;4132356;28;20686;-39
2022/09/07 07:25:36;;;;;;;1.05;0.22;;;;;;;;;;4132241;28;20417;-40
2022/09/07 07:27:37;;;;;;;1.77;0.20;;;;;;;;;;4127076;28;20418;-39
2022/09/07 07:29:38;;;;;;;0.38;0.30;;;;;;;;;;4128672;28;20385;-37
2022/09/07 07:31:39;;;;;;;0.50;0.20;;;;;;;;;;4119540;28;20453;-39
2022/09/07 07:33:40;;;;;;;1.02;0.30;;;;;;;;;;4124252;28;20062;-38
2022/09/07 07:35:42;;;;;;;0.75;0.28;;;;;;;;;;4123538;28;20108;-38
2022/09/07 07:37:43;;;;;;;0.32;0.20;;;;;;;;;;4122399;28;21817;-38
2022/09/07 07:39:44;;;;;;;0.10;0.10;;;;;;;;;;4124353;28;20096;-38
2022/09/07 07:41:45;;;;;;;0.60;0.20;;;;;;;;;;4126552;28;20058;-38
2022/09/07 07:43:51;;;;;;;0.95;0.20;;;;;;;;;;4124333;28;20445;-38
2022/09/07 07:45:54;;;;;;;0.90;0.10;;;;;;;;;;4123847;28;20124;-38
2022/09/07 07:47:55;;;;;;;0.28;0.13;;;;;;;;;;4129653;28;20104;-39
2022/09/07 07:49:57;;;;;;;1.50;0.30;;;;;;;;;;4134880;28;20571;-38
2022/09/07 07:51:58;;;;;;;0.17;0.10;;;;;;;;;;4105672;28;20148;-39
2022/09/07 07:54:00;;;;;;;0.10;0.10;;;;;;;;;;4123017;28;20498;-39
2022/09/07 07:56:05;;;;;;;0.43;0.10;;;;;;;;;;4126270;28;20061;-39
2022/09/07 07:58:06;;;;;;;0.28;0.10;;;;;;;;;;4122863;28;20449;-38
2022/09/07 08:00:08;;;;;;;0.40;0.10;;;;;;;;;;4124769;28;20054;-40
2022/09/07 08:02:14;;;;;;;0.38;0.20;;;;;;;;;;4118488;28;20108;-39
2022/09/07 08:04:15;;;;;;;0.38;0.30;;;;;;;;;;4115670;28;20053;-40
2022/09/07 08:06:18;;;;;;;0.40;0.20;;;;;;;;;;4116733;28;20677;-39
2022/09/07 08:08:20;;;;;;;0.10;0.10;;;;;;;;;;4123590;28;20505;-39
2022/09/07 08:10:25;;;;;;;1.17;0.20;;;;;;;;;;4128848;28;20153;-38
2022/09/07 08:12:27;;;;;;;0.30;0.15;;;;;;;;;;4121811;28;20577;-38
2022/09/07 08:14:29;;;;;;;0.25;0.10;;;;;;;;;;4129710;28;20545;-39
2022/09/07 08:16:30;;;;;;;0.10;0.10;;;;;;;;;;4127965;28;20513;-38
2022/09/07 08:18:33;;;;;;;0.50;0.20;;;;;;;;;;4129415;28;20053;-39
2022/09/07 08:20:34;;;;;;;0.10;0.10;;;;;;;;;;4117099;28;20053;-38
2022/09/07 08:22:35;;;;;;;0.20;0.17;;;;;;;;;;4119920;28;20588;-38
2022/09/07 08:24:37;;;;;;;0.20;0.20;;;;;;;;;;4124297;28;20703;-39
2022/09/07 08:26:38;;;;;;;0.55;0.20;;;;;;;;;;4131087;28;20053;-39
2022/09/07 08:28:41;;;;;;;0.10;0.10;;;;;;;;;;4121822;28;20092;-38
2022/09/07 08:30:43;;;;;;;0.13;0.13;;;;;;;;;;4126246;28;20112;-38
2022/09/07 08:32:44;;;;;;;0.15;0.10;;;;;;;;;;4129162;28;20054;-39
2022/09/07 08:34:45;;;;;;;0.10;0.10;;;;;;;;;;4126188;28;20053;-39
2022/09/07 08:36:47;;;;;;;0.10;0.10;;;;;;;;;;4117234;28;20692;-39
2022/09/07 08:38:48;;;;;;;0.10;0.10;;;;;;;;;;4127884;28;20140;-38
2022/09/07 08:40:49;;;;;;;0.10;0.10;;;;;;;;;;4127616;28;21836;-39
2022/09/07 08:43:06;;;;;;;0.10;0.10;;;;;;;;;;4129794;28;20073;-38
2022/09/07 08:45:36;;;;;;;0.55;0.28;;;;;;;;;;4128257;28;20057;-39
2022/09/07 08:47:49;;;;;;;0.10;0.10;;;;;;;;;;4124243;28;20129;-39
2022/09/07 08:50:03;;;;;;;0.05;0.05;;;;;;;;;;4127606;28;20068;-38
2022/09/07 08:52:29;;;;;;;0.10;0.10;;;;;;;;;;4128187;28;20061;-39
2022/09/07 08:54:31;;;;;;;0.40;0.20;;;;;;;;;;4138221;28;20058;-40
2022/09/07 08:56:35;;;;;;;0.10;0.00;;;;;;;;;;4125771;28;20061;-39
2022/09/07 08:58:45;;;;;;;0.10;0.10;;;;;;;;;;4126821;28;20096;-38
2022/09/07 09:00:49;;;;;;;;;;;;;;;;;;4118724;28;20101;-39
2022/09/07 09:02:50;;;;;;;0.43;0.10;;;;;;;;;;4120243;28;19930;-38
2022/09/07 09:04:52;;;;;;;0.10;0.10;;;;;;;;;;4125460;28;20158;-38
2022/09/07 09:07:09;;;;;;;0.88;0.10;;;;;;;;;;4129736;28;20104;-38
2022/09/07 09:09:32;;;;;;;0.30;0.15;;;;;;;;;;4131284;28;20046;-40
2022/09/07 09:12:04;;;;;;;0.22;0.10;;;;;;;;;;4125069;28;20150;-40
2022/09/07 09:14:05;;;;;;;0.10;0.10;;;;;;;;;;4123464;28;20054;-40
2022/09/07 09:16:24;;;;;;;2.28;0.10;;;;;;;;;;4120435;28;20053;-39
2022/09/07 09:18:35;;;;;;;1.25;0.10;;;;;;;;;;4121353;28;20056;-40
2022/09/07 09:20:48;;;;;;;0.32;0.10;;;;;;;;;;4122279;28;20061;-39
2022/09/07 09:22:56;;;;;;;0.20;0.10;;;;;;;;;;4122629;28;20456;-40
2022/09/07 09:25:25;;;;;;;0.28;0.10;;;;;;;;;;4114466;28;20061;-39
2022/09/07 09:27:27;;;;;;;0.52;0.10;;;;;;;;;;4119122;28;20861;-40
2022/09/07 09:29:28;;;;;;;0.13;0.13;;;;;;;;;;4123576;28;20100;-39
2022/09/07 09:31:34;;;;;;;0.10;0.10;;;;;;;;;;4125632;28;20054;-39
2022/09/07 09:33:36;;;;;;;0.95;0.20;;;;;;;;;;4137842;28;20064;-39
2022/09/07 09:35:38;;;;;;;1.45;0.10;;;;;;;;;;4132548;28;20116;-41
2022/09/07 09:37:41;;;;;;;0.57;0.10;;;;;;;;;;4131365;28;20492;-39
2022/09/07 09:39:43;;;;;;;0.45;0.10;;;;;;;;;;4127056;28;20111;-45
2022/09/07 09:41:44;;;;;;;2.72;0.10;;;;;;;;;;4129645;28;20524;-45
2022/09/07 09:43:54;;;;;;;0.20;0.10;;;;;;;;;;4124131;28;20145;-45
2022/09/07 09:45:56;;;;;;;0.00;0.00;;;;;;;;;;4118930;28;20057;-48
2022/09/07 09:48:00;;;;;;;2.92;0.17;;;;;;;;;;4126828;28;20054;-47
2022/09/07 09:50:14;;;;;;;0.73;0.10;;;;;;;;;;4125440;28;20069;-46
2022/09/07 09:52:17;;;;;;;1.60;0.10;;;;;;;;;;4130196;28;20053;-49
2022/09/07 09:54:39;;;;;;;2.75;0.22;;;;;;;;;;4124856;28;20160;-53
2022/09/07 09:56:42;;;;;;;0.50;0.10;;;;;;;;;;4124974;28;20064;-51
2022/09/07 09:58:46;;;;;;;5.68;0.30;;;;;;;;;;4123060;28;20759;-50
2022/09/07 10:01:18;;;;;;;6.20;0.45;;;;;;;;;;4115521;28;20116;-51
2022/09/07 10:03:19;;;;;;;0.45;0.20;;;;;;;;;;4108988;28;20062;-51
2022/09/07 10:05:28;;;;;;;1.95;0.20;;;;;;;;;;4120199;28;20057;-51
2022/09/07 10:07:31;;;;;;;4.32;0.20;;;;;;;;;;4125445;28;20100;-49
2022/09/07 10:09:40;;;;;;;4.90;0.22;;;;;;;;;;4127244;28;20116;-49
2022/09/07 10:11:46;;;;;;;1.13;0.10;;;;;;;;;;4125791;28;20131;-54
2022/09/07 10:13:59;;;;;;;4.47;0.30;;;;;;;;;;4128871;28;20148;-55
2022/09/07 10:16:02;;;;;;;0.55;0.10;;;;;;;;;;4131074;28;20046;-52
2022/09/07 10:18:05;;;;;;;2.17;0.10;;;;;;;;;;4130769;28;20100;-52
2022/09/07 10:20:15;;;;;;;1.88;0.20;;;;;;;;;;4131246;28;20129;-51
2022/09/07 10:22:21;;;;;;;;;;;;;;;;;;4134714;28;20054;-53
2022/09/07 10:24:25;;;;;;;1.25;0.17;;;;;;;;;;4133180;28;19929;-52
2022/09/07 10:26:37;;;;;;;1.90;0.10;;;;;;;;;;4131781;28;20120;-51
2022/09/07 10:28:38;;;;;;;0.30;0.15;;;;;;;;;;4136635;28;20096;-50
2022/09/07 10:30:46;;;;;;;0.10;0.00;;;;;;;;;;4116660;28;20398;-52
2022/09/07 10:33:02;;;;;;;0.65;0.17;;;;;;;;;;4131036;28;20387;-50
2022/09/07 10:35:12;;;;;;;0.65;0.10;;;;;;;;;;4132977;28;20065;-52
2022/09/07 10:37:29;;;;;;;1.65;0.20;;;;;;;;;;4125633;28;20057;-52
2022/09/07 10:39:34;;;;;;;2.92;0.20;;;;;;;;;;4129590;28;20180;-49
2022/09/07 10:41:46;;;;;;;2.88;0.22;;;;;;;;;;4126431;28;20712;-49
2022/09/07 10:43:49;;;;;;;0.50;0.15;;;;;;;;;;4129525;28;20372;-53
2022/09/07 10:46:11;;;;;;;3.92;0.20;;;;;;;;;;4131352;28;20537;-51
2022/09/07 10:48:38;;;;;;;6.57;0.10;;;;;;;;;;4138745;28;20523;-49
2022/09/07 10:50:58;;;;;;;3.50;0.20;;;;;;;;;;4132117;28;20049;-53
2022/09/07 10:53:18;;;;;;;;;;;;;;;;;;4129620;28;20057;-52
2022/09/07 10:55:31;;;;;;;0.63;0.10;;;;;;;;;;4128405;28;20541;-50
2022/09/07 10:57:43;;;;;;;3.20;0.20;;;;;;;;;;4122188;28;20101;-51
2022/09/07 11:00:13;;;;;;;1.33;0.22;;;;;;;;;;4121183;28;20482;-50
2022/09/07 11:02:39;;;;;;;1.17;0.20;;;;;;;;;;4124330;28;20524;-48
2022/09/07 11:05:10;;;;;;;1.30;0.20;;;;;;;;;;4130124;28;20057;-49
2022/09/07 11:07:31;;;;;;;2.95;0.32;;;;;;;;;;4136352;28;20057;-51
2022/09/07 11:09:47;;;;;;;0.65;0.20;;;;;;;;;;4137090;28;20049;-49
2022/09/07 11:12:11;;;;;;;1.05;0.20;;;;;;;;;;4135069;28;20343;-48
2022/09/07 11:14:16;;;;;;;0.98;0.10;;;;;;;;;;4135582;28;20065;-47
2022/09/07 11:16:20;;;;;;;0.63;0.10;;;;;;;;;;4127440;28;20432;-49
2022/09/07 11:18:35;;;;;;;0.45;0.25;;;;;;;;;;4134353;28;20061;-47
2022/09/07 11:20:54;;;;;;;0.90;0.20;;;;;;;;;;4135802;28;20108;-50
2022/09/07 11:23:02;;;;;;;1.15;0.20;;;;;;;;;;4130593;28;20065;-49
2022/09/07 11:25:24;;;;;;;0.73;0.10;;;;;;;;;;4139552;28;20424;-47
2022/09/07 11:27:29;;;;;;;0.68;0.20;;;;;;;;;;4133563;28;20053;-48
2022/09/07 11:29:56;;;;;;;1.83;0.10;;;;;;;;;;4127660;28;20120;-49
2022/09/07 11:32:02;;;;;;;2.58;0.13;;;;;;;;;;4130901;28;20180;-47
2022/09/07 11:34:23;;;;;;;0.43;0.13;;;;;;;;;;4116888;28;20058;-48
2022/09/07 11:36:25;;;;;;;0.90;0.30;;;;;;;;;;4134261;28;20130;-50
2022/09/07 11:38:35;;;;;;;0.85;0.10;;;;;;;;;;4142375;28;20115;-47
2022/09/07 11:40:41;;;;;;;0.38;0.10;;;;;;;;;;4147296;28;20211;-47
2022/09/07 11:42:48;;;;;;;0.95;0.10;;;;;;;;;;4128759;28;20054;-50
2022/09/07 11:45:02;;;;;;;0.50;0.17;;;;;;;;;;4140736;28;20068;-49
2022/09/07 11:47:25;;;;;;;0.47;0.10;;;;;;;;;;4125031;28;21030;-49
2022/09/07 11:49:26;;;;;;;1.00;0.10;;;;;;;;;;4136569;28;20046;-47
2022/09/07 11:51:39;;;;;;;0.57;0.10;;;;;;;;;;4134578;28;20066;-47
2022/09/07 11:53:56;;;;;;;0.98;0.10;;;;;;;;;;4131439;28;20483;-48
2022/09/07 11:56:09;;;;;;;0.25;0.10;;;;;;;;;;4129036;28;20054;-50
2022/09/07 11:58:29;;;;;;;1.98;0.10;;;;;;;;;;4131383;28;20487;-49
2022/09/07 12:00:59;;;;;;;0.68;0.20;;;;;;;;;;4129711;28;20053;-47
2022/09/07 12:03:40;;;;;;;0.43;0.20;;;;;;;;;;4129830;28;20054;-49
2022/09/07 12:05:55;;;;;;;0.38;0.10;;;;;;;;;;4134624;28;20480;-50
2022/09/07 12:08:06;;;;;;;0.85;0.15;;;;;;;;;;4136252;28;20398;-48
2022/09/07 12:10:30;;;;;;;0.30;0.10;;;;;;;;;;4148110;28;20061;-50
2022/09/07 12:12:56;;;;;;;0.43;0.13;;;;;;;;;;4131026;28;20057;-47
2022/09/07 12:15:00;;;;;;;0.20;0.10;;;;;;;;;;4134256;28;20053;-47
2022/09/07 12:17:16;;;;;;;0.43;0.10;;;;;;;;;;4133543;28;20058;-44
2022/09/07 12:19:22;;;;;;;1.00;0.10;;;;;;;;;;4131448;28;20124;-44
2022/09/07 12:21:39;;;;;;;0.57;0.40;;;;;;;;;;4134415;28;20096;-45
2022/09/07 12:23:44;;;;;;;0.65;0.20;;;;;;;;;;4125668;28;20088;-44
2022/09/07 12:25:47;;;;;;;0.10;0.05;;;;;;;;;;4136182;28;20058;-47
2022/09/07 12:27:48;;;;;;;0.10;0.10;;;;;;;;;;4120475;28;20164;-45
2022/09/07 12:30:12;;;;;;;0.40;0.05;;;;;;;;;;4128767;28;20065;-44
2022/09/07 12:32:48;;;;;;;0.10;0.03;;;;;;;;;;4124953;28;20054;-44
2022/09/07 12:34:53;;;;;;;0.70;0.10;;;;;;;;;;4129644;28;20088;-43
2022/09/07 12:36:54;;;;;;;1.42;0.20;;;;;;;;;;4130433;28;20054;-42